createdAt,value
2023-03-01T00:00:33.838Z,73.40
2023-03-01T00:01:38.544Z,73.43
2023-03-01T00:02:42.389Z,73.31
2023-03-01T00:03:47.020Z,73.15
2023-03-01T00:04:50.807Z,73.21
2023-03-01T00:05:54.512Z,73.51
2023-03-01T00:06:58.491Z,73.41
2023-03-01T00:08:03.096Z,73.41
2023-03-01T00:09:09.806Z,73.40
2023-03-01T00:10:14.228Z,73.29
2023-03-01T00:11:26.044Z,73.55
2023-03-01T00:12:30.273Z,73.61
2023-03-01T00:13:36.386Z,73.73
2023-03-01T00:14:42.894Z,73.98
2023-03-01T00:15:46.817Z,73.98
2023-03-01T00:16:50.553Z,73.95
2023-03-01T00:17:54.459Z,74.18
2023-03-01T00:19:01.470Z,74.12
2023-03-01T00:20:12.897Z,74.07
2023-03-01T00:21:16.953Z,73.96
2023-03-01T00:22:20.858Z,74.06
2023-03-01T00:23:25.970Z,73.82
2023-03-01T00:24:30.357Z,73.99
2023-03-01T00:25:34.447Z,74.00
2023-03-01T00:26:38.712Z,73.96
2023-03-01T00:27:42.634Z,74.10
2023-03-01T00:28:47.694Z,74.16
2023-03-01T00:29:51.447Z,74.02
2023-03-01T00:31:03.447Z,74.11
2023-03-01T00:32:12.931Z,74.06
2023-03-01T00:33:16.898Z,74.14
2023-03-01T00:34:20.995Z,74.24
2023-03-01T00:35:25.190Z,74.09
2023-03-01T00:36:35.890Z,74.09
2023-03-01T00:37:39.821Z,74.26
2023-03-01T00:38:46.949Z,74.22
2023-03-01T00:39:51.529Z,74.14
2023-03-01T00:40:56.264Z,74.25
2023-03-01T00:42:00.621Z,74.25
2023-03-01T00:43:05.297Z,74.47
2023-03-01T00:44:14.694Z,74.56
2023-03-01T00:45:19.132Z,74.48
2023-03-01T00:46:28.490Z,74.67
2023-03-01T00:47:32.549Z,74.66
2023-03-01T00:48:38.040Z,74.39
2023-03-01T00:49:41.738Z,74.52
2023-03-01T00:50:45.782Z,74.71
2023-03-01T00:51:49.547Z,74.68
2023-03-01T00:52:57.554Z,74.70
2023-03-01T00:54:08.765Z,74.94
2023-03-01T00:55:13.819Z,74.85
2023-03-01T00:56:17.957Z,74.75
2023-03-01T00:57:21.650Z,74.96
2023-03-01T00:58:26.222Z,75.16
2023-03-01T00:59:30.370Z,75.18
2023-03-01T01:00:34.804Z,75.22
2023-03-01T01:01:39.020Z,75.28
2023-03-01T01:02:43.433Z,75.46
2023-03-01T01:03:55.512Z,75.46
2023-03-01T01:04:59.546Z,75.64
2023-03-01T01:06:33.526Z,76.17
2023-03-01T01:07:38.009Z,75.71
2023-03-01T01:08:41.907Z,75.95
2023-03-01T01:09:47.242Z,76.02
2023-03-01T01:10:51.070Z,75.97
2023-03-01T01:11:54.807Z,76.13
2023-03-01T01:12:59.313Z,76.06
2023-03-01T01:14:03.855Z,76.15
2023-03-01T01:15:17.697Z,76.24
2023-03-01T01:16:24.339Z,76.54
2023-03-01T01:17:28.104Z,76.36
2023-03-01T01:18:32.082Z,76.24
2023-03-01T01:19:35.840Z,76.44
2023-03-01T01:20:39.700Z,76.31
2023-03-01T01:21:44.309Z,76.38
2023-03-01T01:22:48.148Z,76.79
2023-03-01T01:23:59.990Z,76.60
2023-03-01T01:25:15.554Z,76.43
2023-03-01T01:26:31.070Z,76.58
2023-03-01T01:27:35.252Z,76.44
2023-03-01T01:28:39.291Z,76.27
2023-03-01T01:29:45.629Z,76.17
2023-03-01T01:30:49.362Z,76.27
2023-03-01T01:31:53.568Z,76.33
2023-03-01T01:32:57.821Z,76.00
2023-03-01T01:34:04.556Z,76.09
2023-03-01T01:35:14.089Z,76.08
2023-03-01T01:36:20.928Z,76.32
2023-03-01T01:37:32.297Z,76.07
2023-03-01T01:38:38.889Z,75.89
2023-03-01T01:39:42.981Z,76.10
2023-03-01T01:40:52.330Z,76.12
2023-03-01T01:41:56.273Z,76.13
2023-03-01T01:43:00.328Z,76.07
2023-03-01T01:44:31.552Z,76.15
2023-03-01T01:45:37.072Z,76.43
2023-03-01T01:46:52.669Z,76.51
2023-03-01T01:48:09.066Z,76.68
2023-03-01T01:49:54.866Z,76.53
2023-03-01T01:51:02.589Z,76.54
2023-03-01T01:52:22.688Z,76.61
2023-03-01T01:53:28.361Z,76.61
2023-03-01T01:55:09.475Z,76.70
2023-03-01T01:56:19.369Z,76.74
2023-03-01T01:57:35.079Z,76.81
2023-03-01T01:58:40.212Z,76.74
2023-03-01T01:59:52.189Z,76.65
2023-03-01T02:00:56.650Z,76.89
2023-03-01T02:02:05.471Z,76.74
2023-03-01T02:03:34.563Z,76.93
2023-03-01T02:04:38.974Z,76.82
2023-03-01T02:05:57.608Z,76.83
2023-03-01T02:07:16.619Z,76.90
2023-03-01T02:08:24.053Z,77.13
2023-03-01T02:09:29.334Z,77.01
2023-03-01T02:10:36.872Z,77.05
2023-03-01T02:11:45.581Z,77.01
2023-03-01T02:12:49.620Z,76.90
2023-03-01T02:13:55.923Z,76.63
2023-03-01T02:14:59.783Z,76.74
2023-03-01T02:16:12.810Z,76.83
2023-03-01T02:17:19.936Z,76.64
2023-03-01T02:18:26.246Z,76.36
2023-03-01T02:20:14.030Z,76.69
2023-03-01T02:21:54.290Z,76.81
2023-03-01T02:22:58.768Z,76.84
2023-03-01T02:24:36.221Z,77.08
2023-03-01T02:26:25.691Z,77.00
2023-03-01T02:27:46.953Z,76.99
2023-03-01T02:28:51.855Z,76.89
2023-03-01T02:29:56.892Z,76.79
2023-03-01T02:31:24.364Z,76.84
2023-03-01T02:32:28.161Z,76.96
2023-03-01T02:33:37.238Z,77.13
2023-03-01T02:34:41.380Z,77.11
2023-03-01T02:35:45.423Z,77.16
2023-03-01T02:37:13.776Z,76.96
2023-03-01T02:38:18.182Z,77.16
2023-03-01T02:39:32.649Z,77.16
2023-03-01T02:40:41.709Z,77.00
2023-03-01T02:41:53.157Z,77.29
2023-03-01T02:43:00.466Z,76.93
2023-03-01T02:44:13.411Z,76.94
2023-03-01T02:45:18.392Z,77.03
2023-03-01T02:46:27.176Z,76.79
2023-03-01T02:47:30.902Z,77.08
2023-03-01T02:48:51.766Z,76.99
2023-03-01T02:50:02.719Z,77.13
2023-03-01T02:51:32.279Z,77.29
2023-03-01T02:52:49.172Z,77.19
2023-03-01T02:54:14.619Z,77.57
2023-03-01T02:55:19.390Z,77.22
2023-03-01T02:56:23.570Z,77.30
2023-03-01T02:57:31.294Z,77.32
2023-03-01T02:58:46.221Z,77.39
2023-03-01T02:59:52.492Z,77.25
2023-03-01T03:00:57.810Z,77.33
2023-03-01T03:02:02.907Z,77.29
2023-03-01T03:03:16.477Z,77.19
2023-03-01T03:04:22.133Z,77.23
2023-03-01T03:05:31.312Z,76.95
2023-03-01T03:06:35.898Z,76.93
2023-03-01T03:07:44.642Z,77.03
2023-03-01T03:08:48.496Z,76.89
2023-03-01T03:09:52.171Z,77.11
2023-03-01T03:10:56.936Z,77.12
2023-03-01T03:12:01.056Z,76.71
2023-03-01T03:13:10.242Z,76.63
2023-03-01T03:14:17.218Z,76.79
2023-03-01T03:15:23.265Z,76.84
2023-03-01T03:16:27.475Z,76.78
2023-03-01T03:17:31.362Z,76.86
2023-03-01T03:18:35.325Z,76.82
2023-03-01T03:19:39.200Z,76.97
2023-03-01T03:20:47.188Z,76.80
2023-03-01T03:21:51.049Z,76.94
2023-03-01T03:22:59.391Z,77.10
2023-03-01T03:24:04.938Z,77.00
2023-03-01T03:25:13.582Z,77.01
2023-03-01T03:26:17.543Z,76.97
2023-03-01T03:27:21.371Z,77.41
2023-03-01T03:28:25.156Z,77.32
2023-03-01T03:29:28.905Z,77.20
2023-03-01T03:30:33.093Z,77.18
2023-03-01T03:31:37.127Z,77.53
2023-03-01T03:32:42.168Z,77.42
2023-03-01T03:33:46.113Z,77.26
2023-03-01T03:34:50.406Z,77.09
2023-03-01T03:35:54.299Z,77.37
2023-03-01T03:37:00.505Z,77.31
2023-03-01T03:38:16.600Z,77.13
2023-03-01T03:39:21.790Z,77.13
2023-03-01T03:40:28.143Z,77.16
2023-03-01T03:41:31.984Z,77.38
2023-03-01T03:42:35.775Z,77.21
2023-03-01T03:43:43.719Z,77.18
2023-03-01T03:44:47.496Z,77.29
2023-03-01T03:45:52.942Z,77.27
2023-03-01T03:46:57.121Z,77.36
2023-03-01T03:48:02.925Z,77.18
2023-03-01T03:49:09.859Z,77.24
2023-03-01T03:50:17.307Z,77.30
2023-03-01T03:51:23.744Z,77.32
2023-03-01T03:52:27.622Z,77.39
2023-03-01T03:53:31.664Z,77.38
2023-03-01T03:54:35.269Z,77.46
2023-03-01T03:55:40.471Z,77.66
2023-03-01T03:56:45.110Z,77.95
2023-03-01T03:57:52.894Z,78.06
2023-03-01T03:58:57.210Z,78.13
2023-03-01T04:00:00.884Z,78.00
2023-03-01T04:01:06.099Z,78.09
2023-03-01T04:02:13.977Z,78.07
2023-03-01T04:03:20.015Z,78.07
2023-03-01T04:04:23.909Z,78.35
2023-03-01T04:05:28.836Z,78.17
2023-03-01T04:06:32.986Z,78.37
2023-03-01T04:07:39.085Z,78.33
2023-03-01T04:08:43.251Z,78.35
2023-03-01T04:09:47.233Z,78.40
2023-03-01T04:10:58.158Z,78.64
2023-03-01T04:12:01.948Z,78.74
2023-03-01T04:13:14.262Z,78.54
2023-03-01T04:14:18.754Z,78.41
2023-03-01T04:15:25.333Z,78.40
2023-03-01T04:16:30.030Z,78.31
2023-03-01T04:17:35.130Z,77.96
2023-03-01T04:18:39.609Z,78.18
2023-03-01T04:19:45.353Z,78.09
2023-03-01T04:20:50.397Z,78.35
2023-03-01T04:21:55.084Z,78.32
2023-03-01T04:23:21.439Z,78.22
2023-03-01T04:24:25.600Z,78.41
2023-03-01T04:25:30.234Z,78.45
2023-03-01T04:26:34.178Z,78.14
2023-03-01T04:27:38.239Z,78.38
2023-03-01T04:28:47.193Z,78.54
2023-03-01T04:29:51.080Z,78.63
2023-03-01T04:30:57.747Z,78.34
2023-03-01T04:32:01.677Z,78.35
2023-03-01T04:33:11.245Z,78.47
2023-03-01T04:34:15.272Z,78.43
2023-03-01T04:35:19.116Z,78.19
2023-03-01T04:36:28.316Z,78.10
2023-03-01T04:37:32.069Z,78.21
2023-03-01T04:38:38.310Z,78.19
2023-03-01T04:39:46.633Z,78.22
2023-03-01T04:40:50.697Z,78.40
2023-03-01T04:41:54.897Z,78.22
2023-03-01T04:42:59.008Z,78.01
2023-03-01T04:44:02.642Z,77.82
2023-03-01T04:45:16.020Z,77.96
2023-03-01T04:46:29.451Z,78.08
2023-03-01T04:47:33.804Z,78.15
2023-03-01T04:48:41.810Z,78.26
2023-03-01T04:49:45.784Z,78.14
2023-03-01T04:50:49.691Z,78.27
2023-03-01T04:51:53.700Z,78.45
2023-03-01T04:52:59.768Z,78.46
2023-03-01T04:54:04.314Z,78.59
2023-03-01T04:55:11.099Z,78.63
2023-03-01T04:56:16.547Z,78.53
2023-03-01T04:57:21.017Z,78.55
2023-03-01T04:58:28.150Z,78.58
2023-03-01T04:59:31.909Z,78.38
2023-03-01T05:00:35.742Z,78.37
2023-03-01T05:01:40.227Z,78.60
2023-03-01T05:02:44.720Z,78.48
2023-03-01T05:03:52.331Z,78.45
2023-03-01T05:04:58.645Z,78.38
2023-03-01T05:06:02.319Z,78.56
2023-03-01T05:07:09.745Z,78.52
2023-03-01T05:08:21.938Z,78.72
2023-03-01T05:09:25.795Z,78.74
2023-03-01T05:10:33.061Z,78.52
2023-03-01T05:11:37.028Z,78.78
2023-03-01T05:12:40.780Z,78.77
2023-03-01T05:13:44.996Z,78.92
2023-03-01T05:14:49.172Z,78.70
2023-03-01T05:16:01.874Z,79.02
2023-03-01T05:17:07.611Z,78.71
2023-03-01T05:18:12.798Z,79.07
2023-03-01T05:19:16.943Z,79.04
2023-03-01T05:20:24.117Z,79.00
2023-03-01T05:21:28.615Z,79.28
2023-03-01T05:22:32.518Z,79.35
2023-03-01T05:23:37.688Z,79.31
2023-03-01T05:24:42.156Z,79.35
2023-03-01T05:25:48.115Z,79.17
2023-03-01T05:26:52.956Z,79.13
2023-03-01T05:27:57.517Z,79.03
2023-03-01T05:29:02.425Z,79.32
2023-03-01T05:30:14.839Z,79.19
2023-03-01T05:31:18.521Z,79.51
2023-03-01T05:32:23.127Z,79.65
2023-03-01T05:33:28.267Z,79.38
2023-03-01T05:34:35.163Z,78.97
2023-03-01T05:35:38.889Z,79.08
2023-03-01T05:36:42.558Z,79.17
2023-03-01T05:37:49.083Z,78.88
2023-03-01T05:38:53.292Z,78.92
2023-03-01T05:39:57.275Z,79.06
2023-03-01T05:41:01.250Z,79.06
2023-03-01T05:42:08.565Z,79.04
2023-03-01T05:43:14.612Z,78.95
2023-03-01T05:44:18.529Z,78.97
2023-03-01T05:45:24.697Z,78.88
2023-03-01T05:46:30.807Z,78.89
2023-03-01T05:47:34.783Z,79.02
2023-03-01T05:48:39.930Z,78.85
2023-03-01T05:49:43.850Z,78.86
2023-03-01T05:50:48.800Z,78.97
2023-03-01T05:51:54.353Z,79.08
2023-03-01T05:53:15.288Z,78.71
2023-03-01T05:54:21.690Z,78.78
2023-03-01T05:55:27.117Z,78.76
2023-03-01T05:56:37.060Z,78.71
2023-03-01T05:57:40.764Z,78.89
2023-03-01T05:58:44.848Z,78.68
2023-03-01T05:59:49.122Z,78.95
2023-03-01T06:00:54.224Z,78.93
2023-03-01T06:01:59.068Z,79.15
2023-03-01T06:03:03.899Z,79.37
2023-03-01T06:04:12.004Z,79.03
2023-03-01T06:05:17.501Z,79.01
2023-03-01T06:06:21.332Z,79.38
2023-03-01T06:07:25.200Z,79.38
2023-03-01T06:08:28.851Z,79.24
2023-03-01T06:09:32.858Z,79.13
2023-03-01T06:10:36.735Z,79.39
2023-03-01T06:11:40.219Z,79.36
2023-03-01T06:12:45.021Z,79.04
2023-03-01T06:13:49.174Z,79.07
2023-03-01T06:14:53.428Z,79.01
2023-03-01T06:15:57.228Z,78.97
2023-03-01T06:17:01.153Z,78.91
2023-03-01T06:18:05.061Z,79.01
2023-03-01T06:19:13.221Z,78.94
2023-03-01T06:20:23.994Z,78.87
2023-03-01T06:21:27.865Z,78.54
2023-03-01T06:22:31.794Z,78.80
2023-03-01T06:23:36.102Z,78.97
2023-03-01T06:24:39.643Z,78.73
2023-03-01T06:25:43.485Z,78.73
2023-03-01T06:26:47.120Z,78.78
2023-03-01T06:27:51.350Z,78.54
2023-03-01T06:28:55.135Z,78.59
2023-03-01T06:30:01.640Z,78.69
2023-03-01T06:31:11.968Z,78.54
2023-03-01T06:32:16.084Z,78.66
2023-03-01T06:33:25.460Z,78.44
2023-03-01T06:34:32.252Z,78.31
2023-03-01T06:35:36.862Z,78.44
2023-03-01T06:36:42.237Z,78.38
2023-03-01T06:37:47.820Z,78.51
2023-03-01T06:38:55.227Z,78.55
2023-03-01T06:40:10.725Z,78.46
2023-03-01T06:41:27.809Z,78.39
2023-03-01T06:42:32.678Z,78.60
2023-03-01T06:43:56.183Z,78.49
2023-03-01T06:44:59.631Z,78.90
2023-03-01T06:46:08.511Z,79.18
2023-03-01T06:47:16.127Z,79.26
2023-03-01T06:48:21.433Z,79.04
2023-03-01T06:49:26.095Z,79.02
2023-03-01T06:50:30.029Z,79.08
2023-03-01T06:51:33.681Z,78.68
2023-03-01T06:52:38.925Z,78.38
2023-03-01T06:53:47.783Z,78.57
2023-03-01T06:54:53.611Z,78.43
2023-03-01T06:56:10.441Z,78.02
2023-03-01T06:57:21.926Z,77.81
2023-03-01T06:58:32.360Z,77.80
2023-03-01T06:59:36.093Z,77.64
2023-03-01T07:00:42.053Z,77.63
2023-03-01T07:01:45.855Z,77.63
2023-03-01T07:02:49.769Z,77.41
2023-03-01T07:03:56.963Z,77.30
2023-03-01T07:05:00.871Z,77.08
2023-03-01T07:06:04.778Z,77.22
2023-03-01T07:07:12.713Z,76.93
2023-03-01T07:08:16.777Z,76.88
2023-03-01T07:09:22.438Z,76.78
2023-03-01T07:10:26.027Z,76.56
2023-03-01T07:11:29.783Z,76.60
2023-03-01T07:12:33.883Z,76.57
2023-03-01T07:13:37.577Z,76.19
2023-03-01T07:14:41.353Z,76.55
2023-03-01T07:15:45.047Z,76.11
2023-03-01T07:16:49.002Z,75.85
2023-03-01T07:17:53.101Z,75.90
2023-03-01T07:19:00.877Z,75.61
2023-03-01T07:20:09.776Z,75.72
2023-03-01T07:21:15.843Z,75.56
2023-03-01T07:22:20.161Z,75.27
2023-03-01T07:23:24.268Z,75.26
2023-03-01T07:24:28.078Z,75.26
2023-03-01T07:25:32.033Z,75.30
2023-03-01T07:26:36.766Z,75.48
2023-03-01T07:27:41.636Z,75.19
2023-03-01T07:28:45.281Z,75.37
2023-03-01T07:29:49.175Z,75.36
2023-03-01T07:30:53.456Z,74.90
2023-03-01T07:31:57.416Z,74.78
2023-03-01T07:33:03.078Z,74.95
2023-03-01T07:34:13.036Z,74.37
2023-03-01T07:35:17.071Z,74.01
2023-03-01T07:36:21.089Z,73.95
2023-03-01T07:37:25.148Z,74.00
2023-03-01T07:38:30.441Z,73.94
2023-03-01T07:39:34.032Z,73.34
2023-03-01T07:40:37.960Z,72.72
2023-03-01T07:41:41.894Z,73.16
2023-03-01T07:42:45.890Z,72.83
2023-03-01T07:43:49.673Z,72.48
2023-03-01T07:44:53.449Z,70.20
2023-03-01T07:46:04.400Z,68.51
2023-03-01T07:47:12.471Z,67.66
2023-03-01T07:48:16.110Z,67.81
2023-03-01T07:49:20.044Z,65.61
2023-03-01T07:50:24.787Z,62.40
2023-03-01T07:51:28.496Z,60.90
2023-03-01T07:52:32.275Z,58.37
2023-03-01T07:53:36.655Z,54.19
2023-03-01T07:54:43.399Z,54.63
2023-03-01T07:55:47.156Z,52.62
2023-03-01T07:56:50.700Z,50.67
2023-03-01T07:57:55.281Z,49.51
2023-03-01T07:59:01.232Z,47.23
2023-03-01T08:00:07.871Z,45.53
2023-03-01T08:01:16.260Z,45.21
2023-03-01T08:02:19.917Z,41.25
2023-03-01T08:03:23.779Z,43.85
2023-03-01T08:04:27.942Z,41.87
2023-03-01T08:05:31.574Z,39.76
2023-03-01T08:06:37.293Z,39.88
2023-03-01T08:07:40.878Z,40.98
2023-03-01T08:08:45.572Z,39.73
2023-03-01T08:09:49.270Z,39.86
2023-03-01T08:10:53.570Z,38.95
2023-03-01T08:12:02.209Z,37.37
2023-03-01T08:13:12.442Z,36.99
2023-03-01T08:14:16.228Z,36.66
2023-03-01T08:15:20.136Z,35.30
2023-03-01T08:16:24.604Z,34.74
2023-03-01T08:17:28.650Z,33.13
2023-03-01T08:18:32.711Z,31.79
2023-03-01T08:19:36.864Z,32.43
2023-03-01T08:20:40.817Z,32.31
2023-03-01T08:21:44.650Z,29.53
2023-03-01T08:22:48.131Z,31.13
2023-03-01T08:23:52.620Z,30.46
2023-03-01T08:24:57.068Z,29.32
2023-03-01T08:26:18.317Z,29.31
2023-03-01T08:27:26.274Z,29.13
2023-03-01T08:28:29.933Z,28.50
2023-03-01T08:29:34.789Z,28.11
2023-03-01T08:30:39.152Z,27.67
2023-03-01T08:31:43.171Z,27.14
2023-03-01T08:32:47.295Z,25.87
2023-03-01T08:33:58.324Z,27.35
2023-03-01T08:35:02.225Z,26.02
2023-03-01T08:36:08.759Z,26.50
2023-03-01T08:37:12.199Z,26.29
2023-03-01T08:38:15.884Z,24.98
2023-03-01T08:39:22.225Z,25.32
2023-03-01T08:40:25.808Z,25.74
2023-03-01T08:41:30.053Z,25.34
2023-03-01T08:42:34.529Z,24.99
2023-03-01T08:43:38.191Z,24.42
2023-03-01T08:44:41.899Z,23.87
2023-03-01T08:45:45.736Z,24.19
2023-03-01T08:46:51.079Z,23.64
2023-03-01T08:47:54.916Z,24.38
2023-03-01T08:48:58.454Z,24.12
2023-03-01T08:50:02.460Z,23.70
2023-03-01T08:51:17.941Z,23.46
2023-03-01T08:52:22.132Z,23.11
2023-03-01T08:53:25.992Z,23.07
2023-03-01T08:54:29.887Z,22.97
2023-03-01T08:55:33.598Z,22.75
2023-03-01T08:56:37.297Z,22.42
2023-03-01T08:57:41.164Z,21.96
2023-03-01T08:58:47.452Z,22.50
2023-03-01T08:59:51.064Z,22.37
2023-03-01T09:00:54.631Z,21.84
2023-03-01T09:01:58.325Z,22.16
2023-03-01T09:03:02.804Z,22.58
2023-03-01T09:04:11.861Z,22.52
2023-03-01T09:05:15.534Z,22.04
2023-03-01T09:06:19.959Z,21.68
2023-03-01T09:07:30.033Z,21.63
2023-03-01T09:08:40.784Z,21.53
2023-03-01T09:09:44.501Z,21.76
2023-03-01T09:10:49.301Z,21.85
2023-03-01T09:11:53.400Z,21.89
2023-03-01T09:12:57.177Z,21.88
2023-03-01T09:14:01.236Z,22.14
2023-03-01T09:15:10.889Z,22.13
2023-03-01T09:16:18.814Z,22.76
2023-03-01T09:17:22.733Z,23.44
2023-03-01T09:18:26.466Z,23.33
2023-03-01T09:19:30.579Z,23.53
2023-03-01T09:20:34.482Z,23.58
2023-03-01T09:21:41.133Z,23.75
2023-03-01T09:22:45.126Z,23.86
2023-03-01T09:23:57.054Z,23.85
2023-03-01T09:25:02.464Z,24.22
2023-03-01T09:26:20.463Z,24.05
2023-03-01T09:27:26.680Z,24.03
2023-03-01T09:28:30.632Z,23.77
2023-03-01T09:29:34.673Z,24.06
2023-03-01T09:30:38.166Z,24.02
2023-03-01T09:31:42.639Z,24.01
2023-03-01T09:32:46.197Z,23.87
2023-03-01T09:33:53.458Z,23.65
2023-03-01T09:35:08.452Z,23.64
2023-03-01T09:36:22.266Z,23.84
2023-03-01T09:37:26.289Z,23.99
2023-03-01T09:38:30.608Z,24.27
2023-03-01T09:39:34.394Z,24.50
2023-03-01T09:40:43.728Z,24.96
2023-03-01T09:42:04.172Z,25.49
2023-03-01T09:43:33.790Z,26.31
2023-03-01T09:44:52.423Z,26.90
2023-03-01T09:46:05.786Z,27.33
2023-03-01T09:47:36.153Z,28.20
2023-03-01T09:49:06.351Z,28.76
2023-03-01T09:50:18.607Z,29.46
2023-03-01T09:51:35.569Z,30.95
2023-03-01T09:53:14.019Z,30.84
2023-03-01T09:54:18.012Z,30.29
2023-03-01T09:55:46.290Z,30.84
2023-03-01T09:57:07.466Z,31.49
2023-03-01T09:58:41.009Z,31.80
2023-03-01T10:00:14.889Z,32.44
2023-03-01T10:02:09.279Z,32.23
2023-03-01T10:03:38.413Z,33.76
2023-03-01T10:04:53.743Z,33.00
2023-03-01T10:06:32.248Z,33.23
2023-03-01T10:08:11.562Z,33.40
2023-03-01T10:09:19.249Z,34.42
2023-03-01T10:10:44.359Z,35.35
2023-03-01T10:11:55.471Z,34.75
2023-03-01T10:13:11.695Z,35.69
2023-03-01T10:14:36.751Z,35.37
2023-03-01T10:15:56.715Z,35.65
2023-03-01T10:17:43.764Z,36.56
2023-03-01T10:18:57.042Z,36.24
2023-03-01T10:20:22.263Z,36.79
2023-03-01T10:21:33.109Z,36.20
2023-03-01T10:22:38.600Z,36.25
2023-03-01T10:23:42.354Z,36.66
2023-03-01T10:24:47.722Z,36.81
2023-03-01T10:26:18.967Z,36.73
2023-03-01T10:27:45.773Z,36.66
2023-03-01T10:29:09.264Z,37.98
2023-03-01T10:30:36.212Z,37.45
2023-03-01T10:31:50.493Z,37.98
2023-03-01T10:32:55.364Z,38.22
2023-03-01T10:34:00.075Z,38.67
2023-03-01T10:35:43.270Z,39.11
2023-03-01T10:36:53.855Z,39.43
2023-03-01T10:38:21.467Z,39.42
2023-03-01T10:39:28.227Z,38.64
2023-03-01T10:40:35.077Z,38.91
2023-03-01T10:41:54.077Z,39.24
2023-03-01T10:43:05.586Z,39.04
2023-03-01T10:44:37.825Z,39.49
2023-03-01T10:45:42.065Z,39.20
2023-03-01T10:46:45.544Z,39.45
2023-03-01T10:48:28.628Z,39.61
2023-03-01T10:49:32.960Z,39.47
2023-03-01T10:50:40.312Z,39.64
2023-03-01T10:51:50.184Z,39.46
2023-03-01T10:53:06.145Z,39.96
2023-03-01T10:54:26.615Z,39.97
2023-03-01T10:55:41.406Z,39.49
2023-03-01T10:57:32.511Z,39.58
2023-03-01T10:58:40.360Z,39.28
2023-03-01T10:59:44.296Z,39.49
2023-03-01T11:01:10.104Z,39.37
2023-03-01T11:02:31.725Z,39.37
2023-03-01T11:03:40.302Z,39.54
2023-03-01T11:05:21.484Z,39.78
2023-03-01T11:06:27.379Z,39.90
2023-03-01T11:07:31.190Z,39.92
2023-03-01T11:08:46.327Z,40.18
2023-03-01T11:09:49.838Z,39.95
2023-03-01T11:11:23.549Z,40.51
2023-03-01T11:12:29.918Z,40.30
2023-03-01T11:13:33.543Z,40.51
2023-03-01T11:14:41.829Z,40.90
2023-03-01T11:16:02.394Z,40.64
2023-03-01T11:17:24.334Z,40.60
2023-03-01T11:18:45.937Z,40.57
2023-03-01T11:20:48.611Z,40.79
2023-03-01T11:22:13.089Z,40.71
2023-03-01T11:23:18.116Z,40.56
2023-03-01T11:24:33.753Z,41.16
2023-03-01T11:25:43.092Z,41.48
2023-03-01T11:26:55.288Z,40.34
2023-03-01T11:28:04.730Z,40.17
2023-03-01T11:29:29.692Z,40.28
2023-03-01T11:31:08.546Z,40.28
2023-03-01T11:32:16.836Z,39.97
2023-03-01T11:33:53.745Z,40.05
2023-03-01T11:35:27.855Z,40.19
2023-03-01T11:37:13.282Z,40.26
2023-03-01T11:38:28.587Z,40.54
2023-03-01T11:39:57.128Z,40.46
2023-03-01T11:41:20.940Z,40.27
2023-03-01T11:42:44.887Z,40.70
2023-03-01T11:44:07.346Z,40.39
2023-03-01T11:45:14.388Z,40.75
2023-03-01T11:46:33.339Z,40.82
2023-03-01T11:47:48.091Z,41.32
2023-03-01T11:49:20.510Z,41.57
2023-03-01T11:50:47.467Z,42.70
2023-03-01T11:52:34.438Z,43.61
2023-03-01T11:53:48.964Z,43.21
2023-03-01T11:55:30.684Z,42.98
2023-03-01T11:56:51.615Z,42.63
2023-03-01T11:58:15.469Z,42.77
2023-03-01T11:59:42.262Z,43.49
2023-03-01T12:01:05.512Z,43.24
2023-03-01T12:02:41.253Z,44.31
2023-03-01T12:04:10.314Z,44.47
2023-03-01T12:05:48.052Z,44.11
2023-03-01T12:07:21.522Z,43.94
2023-03-01T12:09:04.163Z,44.28
2023-03-01T12:10:35.880Z,44.26
2023-03-01T12:12:00.568Z,44.92
2023-03-01T12:13:38.664Z,44.54
2023-03-01T12:14:53.638Z,44.54
2023-03-01T12:16:38.742Z,44.25
2023-03-01T12:18:10.375Z,44.83
2023-03-01T12:19:36.646Z,43.80
2023-03-01T12:21:15.328Z,43.98
2023-03-01T12:22:32.046Z,43.52
2023-03-01T12:24:19.562Z,43.40
2023-03-01T12:25:40.302Z,43.82
2023-03-01T12:27:17.281Z,43.86
2023-03-01T12:28:44.516Z,44.17
2023-03-01T12:30:03.706Z,43.63
2023-03-01T12:32:08.354Z,43.72
2023-03-01T12:33:26.005Z,42.55
2023-03-01T12:35:13.735Z,41.66
2023-03-01T12:37:03.687Z,40.98
2023-03-01T12:38:58.883Z,40.02
2023-03-01T12:40:32.642Z,38.18
2023-03-01T12:41:46.808Z,37.91
2023-03-01T12:43:13.770Z,38.14
2023-03-01T12:45:06.737Z,38.30
2023-03-01T12:46:58.447Z,38.25
2023-03-01T12:48:14.960Z,38.91
2023-03-01T12:49:31.493Z,39.00
2023-03-01T12:50:52.641Z,39.02
2023-03-01T12:52:21.692Z,39.58
2023-03-01T12:53:34.421Z,39.05
2023-03-01T12:54:38.874Z,37.81
2023-03-01T12:55:44.806Z,38.03
2023-03-01T12:56:53.663Z,38.19
2023-03-01T12:58:43.625Z,37.37
2023-03-01T13:00:34.055Z,37.12
2023-03-01T13:02:26.000Z,36.92
2023-03-01T13:04:14.570Z,37.42
2023-03-01T13:05:43.482Z,37.40
2023-03-01T13:07:18.076Z,36.88
2023-03-01T13:08:32.109Z,36.94
2023-03-01T13:09:55.746Z,36.94
2023-03-01T13:11:06.737Z,35.99
2023-03-01T13:12:51.210Z,35.98
2023-03-01T13:14:24.074Z,36.14
2023-03-01T13:15:37.229Z,35.61
2023-03-01T13:16:50.252Z,35.42
2023-03-01T13:17:56.846Z,35.49
2023-03-01T13:19:24.326Z,35.14
2023-03-01T13:20:34.960Z,35.47
2023-03-01T13:21:38.661Z,35.80
2023-03-01T13:22:54.308Z,36.04
2023-03-01T13:24:34.221Z,36.58
2023-03-01T13:26:14.605Z,36.88
2023-03-01T13:27:18.648Z,37.00
2023-03-01T13:28:50.623Z,37.27
2023-03-01T13:30:06.823Z,37.50
2023-03-01T13:31:32.328Z,38.09
2023-03-01T13:32:44.701Z,38.16
2023-03-01T13:33:53.834Z,38.26
2023-03-01T13:35:20.798Z,38.75
2023-03-01T13:36:31.251Z,38.70
2023-03-01T13:37:44.393Z,38.82
2023-03-01T13:39:01.086Z,39.78
2023-03-01T13:40:21.964Z,40.06
2023-03-01T13:41:40.621Z,39.72
2023-03-01T13:42:56.386Z,39.42
2023-03-01T13:44:13.048Z,40.03
2023-03-01T13:45:34.436Z,39.15
2023-03-01T13:46:38.255Z,39.36
2023-03-01T13:47:45.783Z,39.24
2023-03-01T13:48:56.316Z,39.28
2023-03-01T13:50:06.801Z,38.73
2023-03-01T13:51:13.581Z,39.15
2023-03-01T13:52:31.880Z,39.45
2023-03-01T13:53:43.667Z,39.52
2023-03-01T13:54:48.189Z,39.46
2023-03-01T13:56:16.458Z,39.37
2023-03-01T13:57:30.558Z,39.78
2023-03-01T13:58:50.899Z,39.41
2023-03-01T13:59:55.434Z,39.35
2023-03-01T14:01:06.382Z,39.46
2023-03-01T14:02:14.636Z,39.42
2023-03-01T14:03:21.601Z,39.31
2023-03-01T14:04:33.875Z,39.29
2023-03-01T14:05:39.308Z,38.93
2023-03-01T14:06:43.010Z,39.08
2023-03-01T14:07:53.233Z,39.21
2023-03-01T14:09:28.307Z,39.18
2023-03-01T14:11:04.549Z,39.29
2023-03-01T14:12:29.237Z,39.14
2023-03-01T14:14:11.210Z,39.13
2023-03-01T14:15:30.249Z,39.51
2023-03-01T14:16:55.379Z,39.38
2023-03-01T14:18:31.784Z,39.68
2023-03-01T14:19:36.001Z,39.28
2023-03-01T14:20:52.347Z,38.70
2023-03-01T14:22:18.249Z,38.60
2023-03-01T14:23:25.360Z,38.71
2023-03-01T14:24:29.386Z,38.63
2023-03-01T14:25:36.972Z,38.61
2023-03-01T14:26:42.099Z,38.66
2023-03-01T14:27:52.014Z,37.89
2023-03-01T14:28:56.969Z,38.28
2023-03-01T14:30:13.674Z,38.10
2023-03-01T14:31:52.081Z,38.08
2023-03-01T14:33:09.017Z,37.79
2023-03-01T14:34:25.482Z,37.67
2023-03-01T14:35:35.935Z,37.31
2023-03-01T14:36:40.495Z,37.65
2023-03-01T14:37:44.311Z,37.70
2023-03-01T14:38:49.411Z,37.68
2023-03-01T14:39:54.760Z,37.44
2023-03-01T14:41:16.189Z,37.90
2023-03-01T14:42:23.824Z,38.09
2023-03-01T14:43:28.056Z,38.52
2023-03-01T14:44:35.153Z,38.27
2023-03-01T14:45:39.137Z,38.26
2023-03-01T14:46:46.174Z,38.40
2023-03-01T14:47:49.869Z,38.16
2023-03-01T14:49:02.200Z,37.85
2023-03-01T14:50:28.130Z,37.90
2023-03-01T14:51:36.402Z,38.47
2023-03-01T14:52:46.211Z,38.20
2023-03-01T14:53:51.845Z,37.88
2023-03-01T14:54:56.726Z,38.16
2023-03-01T14:56:03.842Z,38.34
2023-03-01T14:57:15.815Z,38.17
2023-03-01T14:58:25.860Z,38.25
2023-03-01T14:59:30.531Z,38.23
2023-03-01T15:00:36.090Z,37.81
2023-03-01T15:01:43.461Z,37.83
2023-03-01T15:02:52.500Z,38.24
2023-03-01T15:03:59.494Z,38.43
2023-03-01T15:05:08.078Z,39.73
2023-03-01T15:06:18.559Z,38.53
2023-03-01T15:07:24.466Z,39.23
2023-03-01T15:08:40.390Z,38.95
2023-03-01T15:09:44.945Z,38.90
2023-03-01T15:11:15.134Z,38.83
2023-03-01T15:12:39.420Z,38.83
2023-03-01T15:13:43.587Z,38.97
2023-03-01T15:15:02.693Z,38.79
2023-03-01T15:16:18.192Z,38.17